Hamler, Ohio
Current Conditions -  °F | °C
As of 4:53 AM on Friday 28 Nov 2014 (Local Time) from KDFI Reporting Station
Overcast Overcast  
Wind Chill: 18°   Ceiling: 2200
Heat Index: 24°   Visibility: 10mi
Dew Point: 18°   Wind: 5mph
Humidity: 77%   Direction: 260°W
Pressure: 30.36"   Gusts: NA
Location:  41.23°N, 84.03°W
Report Text: KDFI 280953Z AUTO 26004KT 10SM FEW013 OVC022 M04/M08 A3036 RMK AO2 SLP289 T10441078
Loading
Personal Weather Stations






























Interactive Weather Map New forecast layout! Learn more

10-Day Weather Forecast

Advertisements
Track Severe Weather on mobile